createdAt,value
2023-05-10T00:01:22.492Z,11.47
2023-05-10T00:03:50.506Z,11.42
2023-05-10T00:06:18.911Z,11.38
2023-05-10T00:08:47.517Z,11.34
2023-05-10T00:11:15.410Z,11.34
2023-05-10T00:13:43.204Z,11.33
2023-05-10T00:16:11.128Z,11.30
2023-05-10T00:18:40.452Z,11.31
2023-05-10T00:21:08.363Z,11.32
2023-05-10T00:23:36.379Z,11.26
2023-05-10T00:26:04.349Z,11.25
2023-05-10T00:28:32.379Z,11.19
2023-05-10T00:31:00.222Z,11.08
2023-05-10T00:33:28.074Z,11.07
2023-05-10T00:35:57.375Z,11.04
2023-05-10T00:38:25.617Z,11.04
2023-05-10T00:40:53.652Z,11.03
2023-05-10T00:43:21.561Z,10.99
2023-05-10T00:45:49.491Z,10.97
2023-05-10T00:48:17.461Z,10.97
2023-05-10T00:50:45.749Z,10.95
2023-05-10T00:53:15.158Z,10.96
2023-05-10T00:55:43.568Z,10.93
2023-05-10T00:58:11.409Z,10.89
2023-05-10T01:00:40.063Z,10.86
2023-05-10T01:03:08.062Z,10.85
2023-05-10T01:05:36.124Z,10.83
2023-05-10T01:08:04.701Z,10.84
2023-05-10T01:10:34.094Z,10.82
2023-05-10T01:13:02.311Z,10.81
2023-05-10T01:15:30.236Z,10.77
2023-05-10T01:17:58.578Z,10.72
2023-05-10T01:20:27.386Z,10.72
2023-05-10T01:23:16.989Z,10.69
2023-05-10T01:26:14.080Z,10.67
2023-05-10T01:29:03.271Z,10.64
2023-05-10T01:31:45.140Z,10.61
2023-05-10T01:34:20.101Z,10.56
2023-05-10T01:36:53.262Z,10.53
2023-05-10T01:39:27.789Z,10.51
2023-05-10T01:42:03.252Z,10.45
2023-05-10T01:44:37.177Z,10.43
2023-05-10T01:47:09.769Z,10.38
2023-05-10T01:49:44.039Z,10.36
2023-05-10T01:52:14.609Z,10.35
2023-05-10T01:54:48.547Z,10.30
2023-05-10T01:57:18.752Z,10.28
2023-05-10T01:59:50.248Z,10.27
2023-05-10T02:02:21.031Z,10.26
2023-05-10T02:04:52.786Z,10.23
2023-05-10T02:07:22.270Z,10.23
2023-05-10T02:09:50.413Z,10.21
2023-05-10T02:12:20.125Z,10.17
2023-05-10T02:14:49.918Z,10.15
2023-05-10T02:17:18.887Z,10.12
2023-05-10T02:19:48.805Z,10.10
2023-05-10T02:22:20.512Z,10.10
2023-05-10T02:24:49.770Z,10.07
2023-05-10T02:27:19.349Z,10.07
2023-05-10T02:29:48.777Z,10.05
2023-05-10T02:32:18.774Z,10.00
2023-05-10T02:34:52.886Z,9.95
2023-05-10T02:37:23.694Z,9.92
2023-05-10T02:39:54.213Z,9.84
2023-05-10T02:42:27.436Z,9.80
2023-05-10T02:44:58.761Z,9.77
2023-05-10T02:47:26.791Z,9.74
2023-05-10T02:49:54.614Z,9.73
2023-05-10T02:52:28.487Z,9.70
2023-05-10T02:55:00.566Z,9.71
2023-05-10T02:57:32.352Z,9.67
2023-05-10T03:00:01.248Z,9.70
2023-05-10T03:02:29.224Z,9.66
2023-05-10T03:04:57.237Z,9.64
2023-05-10T03:07:26.809Z,9.59
2023-05-10T03:09:54.966Z,9.54
2023-05-10T03:12:33.710Z,9.52
2023-05-10T03:15:09.054Z,9.50
2023-05-10T03:17:43.227Z,9.43
2023-05-10T03:20:13.360Z,9.42
2023-05-10T03:22:49.233Z,9.41
2023-05-10T03:25:19.005Z,9.40
2023-05-10T03:27:48.113Z,9.46
2023-05-10T03:30:16.748Z,9.47
2023-05-10T03:32:44.789Z,9.52
2023-05-10T03:35:14.253Z,9.51
2023-05-10T03:37:43.520Z,9.50
2023-05-10T03:40:11.692Z,9.50
2023-05-10T03:42:39.517Z,9.54
2023-05-10T03:45:08.763Z,9.54
2023-05-10T03:47:36.620Z,9.55
2023-05-10T03:50:05.020Z,9.62
2023-05-10T03:52:32.958Z,9.64
2023-05-10T03:55:04.065Z,9.66
2023-05-10T03:57:33.312Z,9.65
2023-05-10T04:00:01.498Z,9.63
2023-05-10T04:02:31.106Z,9.64
2023-05-10T04:04:59.272Z,9.66
2023-05-10T04:07:27.112Z,9.66
2023-05-10T04:09:55.011Z,9.72
2023-05-10T04:12:24.288Z,9.77
2023-05-10T04:14:52.202Z,9.84
2023-05-10T04:17:20.278Z,9.90
2023-05-10T04:19:48.221Z,9.98
2023-05-10T04:22:16.111Z,10.01
2023-05-10T04:24:43.910Z,10.03
2023-05-10T04:27:12.594Z,10.10
2023-05-10T04:29:43.061Z,10.19
2023-05-10T04:32:11.421Z,10.26
2023-05-10T04:34:39.331Z,10.29
2023-05-10T04:37:08.518Z,10.27
2023-05-10T04:39:36.521Z,10.24
2023-05-10T04:42:06.738Z,10.25
2023-05-10T04:44:34.645Z,10.34
2023-05-10T04:47:04.336Z,10.46
2023-05-10T04:49:32.416Z,10.61
2023-05-10T04:52:00.411Z,10.80
2023-05-10T04:54:28.269Z,11.04
2023-05-10T04:56:56.158Z,11.24
2023-05-10T04:59:24.139Z,11.44
2023-05-10T05:01:52.115Z,11.71
2023-05-10T05:04:21.327Z,12.05
2023-05-10T05:06:49.874Z,12.65
2023-05-10T05:09:18.969Z,13.43
2023-05-10T05:11:46.876Z,14.14
2023-05-10T05:14:14.713Z,14.45
2023-05-10T05:16:42.637Z,14.63
2023-05-10T05:19:10.590Z,14.70
2023-05-10T05:21:40.039Z,14.64
2023-05-10T05:24:08.809Z,14.41
2023-05-10T05:26:36.852Z,14.17
2023-05-10T05:29:04.809Z,14.06
2023-05-10T05:31:32.831Z,14.11
2023-05-10T05:34:00.779Z,14.07
2023-05-10T05:36:28.584Z,13.98
2023-05-10T05:38:58.188Z,13.85
2023-05-10T05:41:26.272Z,13.99
2023-05-10T05:43:54.102Z,14.10
2023-05-10T05:46:22.053Z,14.13
2023-05-10T05:48:49.945Z,14.29
2023-05-10T05:51:18.194Z,14.49
2023-05-10T05:53:46.304Z,14.62
2023-05-10T05:56:15.682Z,14.64
2023-05-10T05:58:43.521Z,14.63
2023-05-10T06:01:11.520Z,14.66
2023-05-10T06:03:39.619Z,14.65
2023-05-10T06:06:07.884Z,14.67
2023-05-10T06:08:35.900Z,14.89
2023-05-10T06:11:05.304Z,15.11
2023-05-10T06:13:36.291Z,15.30
2023-05-10T06:16:04.656Z,15.49
2023-05-10T06:18:32.634Z,15.62
2023-05-10T06:21:00.837Z,15.72
2023-05-10T06:23:28.861Z,15.79
2023-05-10T06:25:56.741Z,15.85
2023-05-10T06:28:24.638Z,15.96
2023-05-10T06:30:54.461Z,16.08
2023-05-10T06:33:22.407Z,16.17
2023-05-10T06:35:50.466Z,16.37
2023-05-10T06:38:18.463Z,16.38
2023-05-10T06:40:46.485Z,16.39
2023-05-10T06:43:14.444Z,16.48
2023-05-10T06:45:43.040Z,16.37
2023-05-10T06:48:12.682Z,16.26
2023-05-10T06:50:40.695Z,16.18
2023-05-10T06:53:08.620Z,16.32
2023-05-10T06:55:36.461Z,16.68
2023-05-10T06:58:04.337Z,16.92
2023-05-10T07:00:32.231Z,17.13
2023-05-10T07:03:00.523Z,17.29
2023-05-10T07:05:30.504Z,17.31
2023-05-10T07:07:58.542Z,17.42
2023-05-10T07:10:26.467Z,17.61
2023-05-10T07:12:57.084Z,17.84
2023-05-10T07:15:25.223Z,18.12
2023-05-10T07:17:53.787Z,18.21
2023-05-10T07:20:21.732Z,18.20
2023-05-10T07:22:51.142Z,18.25
2023-05-10T07:25:19.565Z,18.36
2023-05-10T07:27:49.669Z,18.29
2023-05-10T07:30:20.861Z,18.23
2023-05-10T07:32:48.890Z,18.10
2023-05-10T07:35:19.491Z,17.81
2023-05-10T07:37:47.483Z,17.66
2023-05-10T07:40:17.274Z,17.68
2023-05-10T07:42:46.727Z,17.83
2023-05-10T07:45:15.679Z,18.14
2023-05-10T07:47:43.815Z,18.46
2023-05-10T07:50:12.052Z,18.70
2023-05-10T07:52:39.871Z,18.89
2023-05-10T07:55:08.973Z,19.19
2023-05-10T07:57:38.533Z,19.23
2023-05-10T08:00:07.436Z,19.26
2023-05-10T08:02:36.305Z,18.61
2023-05-10T08:05:04.842Z,18.73
2023-05-10T08:07:32.815Z,19.11
2023-05-10T08:10:00.665Z,19.52
2023-05-10T08:12:28.530Z,19.54
2023-05-10T08:14:58.093Z,19.67
2023-05-10T08:17:26.164Z,20.62
2023-05-10T08:19:55.116Z,21.05
2023-05-10T08:22:22.988Z,21.19
2023-05-10T08:24:52.086Z,20.92
2023-05-10T08:27:19.953Z,20.34
2023-05-10T08:29:50.334Z,19.97
2023-05-10T08:32:19.928Z,19.74
2023-05-10T08:34:47.878Z,19.62
2023-05-10T08:37:15.959Z,19.41
2023-05-10T08:39:44.346Z,19.27
2023-05-10T08:42:13.320Z,18.99
2023-05-10T08:44:41.483Z,18.54
2023-05-10T08:47:11.217Z,18.51
2023-05-10T08:49:41.744Z,18.60
2023-05-10T08:52:10.247Z,18.66
2023-05-10T08:54:38.879Z,18.39
2023-05-10T08:57:06.878Z,18.13
2023-05-10T08:59:35.017Z,18.15
2023-05-10T09:02:03.637Z,18.25
2023-05-10T09:04:31.987Z,18.39
2023-05-10T09:07:02.207Z,18.57
2023-05-10T09:09:31.031Z,18.71
2023-05-10T09:11:59.315Z,18.94
2023-05-10T09:14:27.853Z,19.17
2023-05-10T09:16:57.164Z,19.50
2023-05-10T09:19:25.022Z,19.97
2023-05-10T09:21:52.990Z,20.74
2023-05-10T09:24:27.639Z,21.30
2023-05-10T09:26:55.522Z,22.47
2023-05-10T09:29:23.398Z,23.94
2023-05-10T09:31:53.529Z,24.84
2023-05-10T09:34:22.836Z,26.12
2023-05-10T09:36:55.419Z,26.62
2023-05-10T09:39:33.003Z,26.64
2023-05-10T09:42:01.840Z,27.37
2023-05-10T09:44:29.641Z,28.20
2023-05-10T09:46:57.557Z,29.11
2023-05-10T09:49:25.500Z,30.09
2023-05-10T09:52:04.539Z,30.45
2023-05-10T09:54:34.217Z,30.41
2023-05-10T09:57:02.357Z,30.69
2023-05-10T09:59:31.410Z,30.96
2023-05-10T10:02:00.390Z,31.45
2023-05-10T10:04:28.959Z,32.07
2023-05-10T10:07:04.576Z,32.79
2023-05-10T10:09:34.606Z,33.41
2023-05-10T10:12:03.037Z,33.21
2023-05-10T10:14:31.371Z,32.29
2023-05-10T10:19:35.350Z,31.18
2023-05-10T10:22:03.849Z,31.41
2023-05-10T10:24:33.081Z,32.07
2023-05-10T10:27:09.853Z,31.23
2023-05-10T10:29:44.128Z,29.89
2023-05-10T10:32:21.819Z,30.33
2023-05-10T10:34:50.304Z,30.64
2023-05-10T10:37:18.768Z,31.49
2023-05-10T10:39:50.706Z,30.79
2023-05-10T10:42:50.949Z,30.95
2023-05-10T10:45:19.171Z,30.48
2023-05-10T10:47:47.499Z,30.27
2023-05-10T10:50:17.128Z,30.43
2023-05-10T10:52:45.733Z,29.51
2023-05-10T10:55:18.181Z,27.74
2023-05-10T10:57:48.408Z,27.75
2023-05-10T11:00:28.642Z,27.83
2023-05-10T11:02:59.489Z,28.07
2023-05-10T11:05:48.663Z,28.52
2023-05-10T11:08:27.876Z,28.30
2023-05-10T11:11:08.143Z,28.20
2023-05-10T11:13:39.648Z,28.47
2023-05-10T11:16:19.053Z,28.72
2023-05-10T11:19:00.866Z,28.93
2023-05-10T11:21:28.801Z,28.14
2023-05-10T11:23:58.490Z,25.90
2023-05-10T11:26:32.169Z,25.15
2023-05-10T11:29:01.843Z,24.54
2023-05-10T11:31:30.608Z,24.36
2023-05-10T11:34:00.027Z,24.42
2023-05-10T11:36:29.828Z,24.02
2023-05-10T11:38:59.035Z,23.58
2023-05-10T11:41:32.657Z,22.25
2023-05-10T11:44:01.101Z,21.89
2023-05-10T11:46:30.032Z,21.63
2023-05-10T11:49:02.938Z,21.63
2023-05-10T11:51:31.271Z,21.57
2023-05-10T11:53:59.234Z,21.47
2023-05-10T11:56:28.561Z,20.98
2023-05-10T11:58:58.170Z,20.30
2023-05-10T12:01:27.079Z,20.37
2023-05-10T12:03:59.161Z,20.45
2023-05-10T12:06:29.388Z,20.47
2023-05-10T12:08:57.387Z,20.34
2023-05-10T12:11:29.153Z,19.73
2023-05-10T12:13:58.277Z,19.44
2023-05-10T12:16:27.451Z,19.22
2023-05-10T12:19:00.306Z,19.14
2023-05-10T12:21:31.487Z,19.11
2023-05-10T12:24:03.164Z,18.99
2023-05-10T12:26:32.459Z,19.14
2023-05-10T12:29:14.715Z,19.39
2023-05-10T12:31:55.943Z,19.24
2023-05-10T12:34:28.276Z,19.23
2023-05-10T12:36:56.927Z,19.23
2023-05-10T12:39:25.415Z,19.34
2023-05-10T12:41:54.888Z,19.45
2023-05-10T12:44:22.888Z,19.52
2023-05-10T12:46:50.831Z,19.42
2023-05-10T12:49:20.059Z,19.40
2023-05-10T12:51:47.827Z,19.49
2023-05-10T12:54:15.699Z,19.47
2023-05-10T12:56:43.823Z,19.62
2023-05-10T12:59:13.133Z,19.73
2023-05-10T13:01:41.489Z,19.78
2023-05-10T13:04:09.504Z,19.66
2023-05-10T13:06:38.225Z,19.55
2023-05-10T13:09:06.327Z,19.68
2023-05-10T13:11:34.544Z,19.84
2023-05-10T13:14:04.241Z,19.92
2023-05-10T13:16:38.046Z,20.00
2023-05-10T13:19:10.207Z,19.83
2023-05-10T13:21:38.460Z,19.78
2023-05-10T13:24:06.860Z,19.79
2023-05-10T13:26:35.902Z,19.95
2023-05-10T13:29:10.213Z,20.05
2023-05-10T13:31:39.812Z,20.02
2023-05-10T13:34:09.044Z,19.90
2023-05-10T13:36:37.144Z,19.83
2023-05-10T13:39:06.422Z,19.84
2023-05-10T13:41:35.126Z,19.92
2023-05-10T13:44:03.052Z,19.86
2023-05-10T13:46:31.431Z,19.55
2023-05-10T13:49:00.717Z,19.42
2023-05-10T13:51:28.681Z,19.41
2023-05-10T13:53:57.102Z,19.28
2023-05-10T13:56:25.544Z,19.30
2023-05-10T13:58:53.705Z,19.36
2023-05-10T14:01:21.743Z,19.42
2023-05-10T14:03:50.173Z,19.39
2023-05-10T14:06:20.216Z,19.39
2023-05-10T14:08:48.397Z,19.37
2023-05-10T14:11:17.378Z,19.22
2023-05-10T14:13:45.559Z,19.02
2023-05-10T14:16:15.786Z,18.75
2023-05-10T14:18:44.167Z,18.60
2023-05-10T14:21:12.558Z,18.58
2023-05-10T14:23:42.004Z,18.56
2023-05-10T14:26:11.062Z,18.61
2023-05-10T14:28:40.334Z,18.67
2023-05-10T14:31:08.947Z,18.67
2023-05-10T14:33:40.025Z,18.62
2023-05-10T14:36:09.797Z,18.51
2023-05-10T14:38:38.045Z,18.40
2023-05-10T14:41:09.041Z,18.30
2023-05-10T14:43:38.442Z,18.27
2023-05-10T14:46:06.620Z,18.22
2023-05-10T14:48:34.751Z,17.95
2023-05-10T14:51:03.499Z,17.73
2023-05-10T14:53:31.822Z,17.62
2023-05-10T14:56:01.242Z,17.69
2023-05-10T14:58:33.861Z,17.84
2023-05-10T15:01:04.439Z,17.97
2023-05-10T15:03:33.124Z,17.96
2023-05-10T15:06:01.872Z,17.99
2023-05-10T15:08:33.469Z,18.01
2023-05-10T15:11:01.647Z,18.06
2023-05-10T15:13:31.788Z,18.04
2023-05-10T15:16:00.192Z,17.91
2023-05-10T15:18:28.349Z,17.75
2023-05-10T15:20:56.409Z,17.78
2023-05-10T15:23:24.559Z,17.65
2023-05-10T15:25:56.758Z,17.54
2023-05-10T15:28:24.944Z,17.49
2023-05-10T15:30:54.779Z,17.32
2023-05-10T15:33:23.730Z,17.34
2023-05-10T15:35:52.401Z,17.34
2023-05-10T15:38:20.830Z,17.39
2023-05-10T15:40:48.816Z,17.41
2023-05-10T15:43:17.379Z,17.45
2023-05-10T15:45:46.482Z,17.37
2023-05-10T15:48:17.678Z,17.36
2023-05-10T15:50:46.004Z,17.25
2023-05-10T15:53:14.749Z,17.23
2023-05-10T15:55:42.760Z,17.21
2023-05-10T15:58:11.716Z,17.22
2023-05-10T16:00:41.107Z,17.19
2023-05-10T16:03:09.641Z,17.14
2023-05-10T16:05:39.905Z,17.14
2023-05-10T16:08:09.921Z,17.19
2023-05-10T16:10:38.429Z,17.18
2023-05-10T16:13:09.688Z,17.21
2023-05-10T16:15:38.093Z,17.19
2023-05-10T16:18:09.168Z,17.19
2023-05-10T16:20:38.865Z,17.19
2023-05-10T16:23:08.349Z,17.22
2023-05-10T16:25:36.773Z,17.18
2023-05-10T16:28:04.999Z,17.06
2023-05-10T16:30:34.595Z,17.05
2023-05-10T16:33:08.763Z,16.98
2023-05-10T16:35:38.239Z,16.93
2023-05-10T16:38:06.812Z,16.90
2023-05-10T16:40:36.147Z,16.82
2023-05-10T16:43:04.295Z,16.77
2023-05-10T16:45:33.935Z,16.79
2023-05-10T16:48:02.735Z,16.83
2023-05-10T16:50:31.529Z,16.88
2023-05-10T16:53:01.401Z,16.94
2023-05-10T16:55:30.077Z,16.97
2023-05-10T16:58:01.053Z,17.01
2023-05-10T17:00:30.360Z,16.96
2023-05-10T17:02:58.479Z,16.95
2023-05-10T17:05:28.930Z,16.94
2023-05-10T17:07:57.402Z,16.87
2023-05-10T17:10:30.091Z,16.81
2023-05-10T17:13:01.925Z,16.78
2023-05-10T17:15:30.909Z,16.76
2023-05-10T17:18:00.232Z,16.71
2023-05-10T17:20:28.922Z,16.65
2023-05-10T17:22:57.053Z,16.62
2023-05-10T17:25:31.162Z,16.54
2023-05-10T17:27:59.673Z,16.44
2023-05-10T17:30:32.884Z,16.37
2023-05-10T17:33:04.408Z,16.35
2023-05-10T17:35:35.847Z,16.23
2023-05-10T17:38:04.189Z,16.17
2023-05-10T17:40:43.901Z,16.06
2023-05-10T17:43:12.701Z,15.99
2023-05-10T17:45:41.444Z,15.93
2023-05-10T17:48:12.125Z,15.89
2023-05-10T17:50:43.403Z,15.90
2023-05-10T17:53:12.383Z,15.89
2023-05-10T17:55:48.380Z,15.92
2023-05-10T17:58:18.281Z,15.88
2023-05-10T18:00:46.600Z,15.87
2023-05-10T18:03:15.933Z,15.77
2023-05-10T18:05:44.793Z,15.71
2023-05-10T18:08:23.053Z,15.58
2023-05-10T18:10:53.503Z,15.48
2023-05-10T18:13:22.664Z,15.39
2023-05-10T18:15:51.185Z,15.33
2023-05-10T18:18:19.788Z,15.32
2023-05-10T18:20:49.589Z,15.28
2023-05-10T18:23:18.020Z,15.21
2023-05-10T18:25:50.050Z,15.15
2023-05-10T18:28:19.861Z,15.09
2023-05-10T18:30:47.947Z,15.03
2023-05-10T18:33:16.726Z,15.00
2023-05-10T18:35:47.501Z,14.97
2023-05-10T18:38:16.493Z,14.95
2023-05-10T18:40:45.287Z,14.90
2023-05-10T18:43:15.230Z,14.85
2023-05-10T18:45:45.153Z,14.79
2023-05-10T18:48:14.125Z,14.80
2023-05-10T18:50:45.973Z,14.77
2023-05-10T18:53:15.071Z,14.74
2023-05-10T18:55:44.827Z,14.68
2023-05-10T18:58:18.068Z,14.65
2023-05-10T19:00:47.885Z,14.58
2023-05-10T19:03:15.949Z,14.57
2023-05-10T19:05:44.278Z,14.50
2023-05-10T19:08:15.436Z,14.44
2023-05-10T19:10:43.517Z,14.34
2023-05-10T19:13:12.380Z,14.31
2023-05-10T19:15:41.873Z,14.23
2023-05-10T19:18:11.786Z,14.22
2023-05-10T19:20:42.344Z,14.17
2023-05-10T19:23:10.897Z,14.12
2023-05-10T19:25:39.522Z,14.12
2023-05-10T19:28:11.524Z,14.12
2023-05-10T19:30:40.284Z,14.09
2023-05-10T19:33:10.371Z,14.10
2023-05-10T19:35:39.725Z,14.10
2023-05-10T19:38:07.661Z,14.08
2023-05-10T19:40:37.984Z,14.06
2023-05-10T19:43:05.969Z,14.04
2023-05-10T19:45:36.434Z,13.99
2023-05-10T19:48:04.819Z,13.95
2023-05-10T19:50:32.708Z,13.92
2023-05-10T19:53:01.963Z,13.87
2023-05-10T19:55:31.504Z,13.87
2023-05-10T19:58:00.903Z,13.87
2023-05-10T20:00:29.142Z,13.90
2023-05-10T20:02:57.391Z,13.89
2023-05-10T20:05:25.461Z,13.93
2023-05-10T20:07:53.458Z,13.92
2023-05-10T20:10:24.646Z,13.91
2023-05-10T20:12:54.340Z,13.90
2023-05-10T20:15:24.128Z,13.88
2023-05-10T20:17:53.262Z,13.82
2023-05-10T20:20:21.881Z,13.72
2023-05-10T20:22:50.031Z,13.71
2023-05-10T20:25:19.352Z,13.64
2023-05-10T20:27:50.813Z,13.58
2023-05-10T20:30:19.635Z,13.50
2023-05-10T20:32:47.898Z,13.43
2023-05-10T20:35:15.845Z,13.39
2023-05-10T20:37:43.744Z,13.37
2023-05-10T20:40:12.179Z,13.30
2023-05-10T20:42:41.152Z,13.28
2023-05-10T20:45:11.738Z,13.24
2023-05-10T20:47:39.555Z,13.16
2023-05-10T20:50:08.511Z,13.05
2023-05-10T20:52:36.373Z,13.02
2023-05-10T20:55:04.654Z,13.01
2023-05-10T20:57:32.503Z,13.01
2023-05-10T21:00:00.573Z,13.01
2023-05-10T21:02:29.956Z,12.99
2023-05-10T21:04:58.298Z,12.97
2023-05-10T21:07:26.468Z,12.94
2023-05-10T21:09:54.487Z,12.91
2023-05-10T21:12:22.365Z,12.91
2023-05-10T21:14:50.429Z,12.86
2023-05-10T21:17:20.117Z,12.80
2023-05-10T21:19:50.401Z,12.79
2023-05-10T21:22:18.354Z,12.73
2023-05-10T21:24:46.280Z,12.65
2023-05-10T21:27:14.132Z,12.53
2023-05-10T21:29:42.073Z,12.59
2023-05-10T21:32:10.014Z,12.58
2023-05-10T21:34:37.892Z,12.56
2023-05-10T21:37:07.338Z,12.50
2023-05-10T21:39:35.267Z,12.46
2023-05-10T21:42:03.776Z,12.36
2023-05-10T21:44:32.192Z,12.34
2023-05-10T21:47:00.060Z,12.34
2023-05-10T21:49:28.181Z,12.37
2023-05-10T21:51:56.074Z,12.35
2023-05-10T21:54:25.385Z,12.32
2023-05-10T21:56:53.293Z,12.30
2023-05-10T21:59:21.766Z,12.35
2023-05-10T22:01:49.657Z,12.38
2023-05-10T22:04:17.594Z,12.33
2023-05-10T22:06:45.414Z,12.30
2023-05-10T22:09:13.297Z,12.30
2023-05-10T22:11:42.503Z,12.29
2023-05-10T22:14:10.467Z,12.28
2023-05-10T22:16:38.319Z,12.27
2023-05-10T22:19:06.348Z,12.22
2023-05-10T22:21:34.362Z,12.19
2023-05-10T22:24:02.179Z,12.12
2023-05-10T22:26:30.323Z,12.11
2023-05-10T22:28:59.612Z,12.11
2023-05-10T22:31:28.005Z,12.02
2023-05-10T22:33:55.950Z,12.02
2023-05-10T22:36:23.816Z,12.03
2023-05-10T22:38:51.694Z,11.97
2023-05-10T22:41:19.573Z,11.95
2023-05-10T22:43:47.445Z,11.91
2023-05-10T22:46:16.761Z,11.85
2023-05-10T22:48:44.820Z,11.88
2023-05-10T22:51:12.690Z,11.82
2023-05-10T22:53:40.704Z,11.80
2023-05-10T22:56:08.744Z,11.76
2023-05-10T22:58:36.924Z,11.80
2023-05-10T23:01:05.141Z,11.82
2023-05-10T23:03:34.376Z,11.80
2023-05-10T23:06:02.254Z,11.83
2023-05-10T23:08:30.090Z,11.84
2023-05-10T23:10:58.056Z,11.79
2023-05-10T23:13:25.958Z,11.78
2023-05-10T23:15:53.933Z,11.71
2023-05-10T23:18:23.172Z,11.73
2023-05-10T23:20:55.517Z,11.72
2023-05-10T23:23:23.864Z,11.70
2023-05-10T23:25:52.156Z,11.75
2023-05-10T23:28:20.034Z,11.72
2023-05-10T23:30:47.926Z,11.63
2023-05-10T23:33:16.012Z,11.61
2023-05-10T23:35:43.893Z,11.58
2023-05-10T23:38:13.196Z,11.57
2023-05-10T23:40:41.243Z,11.60
2023-05-10T23:43:09.253Z,11.63
2023-05-10T23:45:37.137Z,11.63
2023-05-10T23:48:05.383Z,11.64
2023-05-10T23:50:33.450Z,11.63
2023-05-10T23:53:02.103Z,11.63
2023-05-10T23:55:31.404Z,11.61
2023-05-10T23:57:59.280Z,11.58
